This is the latest recevied weather packets stored in our database for station/object K9RCP-24. If no packets are shown the sender has not sent any weather packets the latest 10 day(s).
| Time | Temp. | Humidity | Pressure | Rain* | Wind** | Luminosity | Snow |
|---|---|---|---|---|---|---|---|
| 1777675929 | 23.33° C | 48% | 1019 hPa | 0 mm | - | - | - |
| 1777675656 | 22.78° C | 48% | 1019 hPa | 0 mm | - | - | - |
| 1777675274 | 23.33° C | 48% | 1019 hPa | 0 mm | - | - | - |
| 1777673429 | 22.78° C | 49% | 1019.3 hPa | 0 mm | - | - | - |
| 1777672927 | 22.78° C | 49% | 1019.6 hPa | 0 mm | - | - | - |
| 1777672760 | 22.22° C | 51% | 1019.6 hPa | 0 mm | - | - | - |
| 1777672250 | 22.78° C | 48% | 1020 hPa | 0 mm | - | - | - |
| 1777671971 | 22.22° C | 49% | 1020 hPa | 0 mm | - | - | - |
| 1777671847 | 22.22° C | 50% | 1020 hPa | 0 mm | - | - | - |
| 1777671474 | 22.22° C | 51% | 1020 hPa | 0 mm | - | - | - |
| 1777671350 | 21.67° C | 51% | 1020 hPa | 0 mm | - | - | - |
| 1777670182 | 21.67° C | 49% | 1020 hPa | 0 mm | - | - | - |
| 1777669931 | 21.67° C | 49% | 1020 hPa | 0 mm | - | - | - |
| 1777668901 | 22.22° C | 49% | 1020 hPa | 0 mm | - | - | - |
| 1777668778 | 21.67° C | 49% | 1020.3 hPa | 0 mm | - | - | - |
| 1777667778 | 21.11° C | 50% | 1020.7 hPa | 0 mm | - | - | - |
| 1777666475 | 20.56° C | 53% | 1020.7 hPa | 0 mm | - | - | - |
| 1777666227 | 20.56° C | 52% | 1020.7 hPa | 0 mm | - | - | - |
| 1777665979 | 20.56° C | 52% | 1020.7 hPa | 0 mm | - | - | - |
| 1777664544 | 20.56° C | 52% | 1021.3 hPa | 0 mm | - | - | - |
| 1777664418 | 20° C | 55% | 1021 hPa | 0 mm | - | - | - |
| 1777664170 | 20° C | 55% | 1021.3 hPa | 0 mm | - | - | - |
| 1777663394 | 19.44° C | 56% | 1021 hPa | 0 mm | - | - | - |
| 1777661255 | 18.33° C | 59% | 1021.3 hPa | 0 mm | - | - | - |
| 1777660748 | 18.33° C | 59% | 1021.7 hPa | 0 mm | - | - | - |
* Rain latest hour (hover to see other rain measurements)
** Current wind speed in m/s (hover to see current wind gust speed)